Time;durP1;ratioP1;P1;durP2;ratioP2;P2;SDS_P1;SDS_P2;PMS_P1;PMS_P2;Temp;Humidity;BMP_temperature;BMP_pressure;BME280_temperature;BME280_humidity;BME280_pressure;Samples;Min_cycle;Max_cycle;Signal;HPM_P1;HPM_P2
2021/08/25 00:02:09;;;;;;;;;9.00;8.75;;;;;19.85;46.20;101813.31;5100596;27;46311;-73
2021/08/25 00:04:40;;;;;;;;;6.75;5.75;;;;;19.74;46.48;101780.47;5100791;27;45361;-73
2021/08/25 00:07:08;;;;;;;;;7.00;7.00;;;;;19.96;46.35;101824.44;5082209;27;45327;-73
2021/08/25 00:09:36;;;;;;;;;7.50;6.75;;;;;19.89;46.47;101817.59;5082299;27;45464;-73
2021/08/25 00:12:01;;;;;;;;;5.50;5.50;;;;;19.82;46.23;101805.34;5100431;27;45307;-73
2021/08/25 00:14:27;;;;;;;;;6.50;5.25;;;;;19.79;46.85;101803.66;5100257;27;45599;-73
2021/08/25 00:16:53;;;;;;;;;6.50;6.50;;;;;19.73;46.52;101797.69;5100720;27;45394;-73
2021/08/25 00:19:18;;;;;;;;;8.25;7.75;;;;;19.80;46.87;101815.41;5082185;27;45471;-74
2021/08/25 00:21:44;;;;;;;;;6.75;5.50;;;;;19.54;46.61;101779.72;5100379;27;46149;-73
2021/08/25 00:24:09;;;;;;;;;7.00;7.00;;;;;19.65;46.56;101798.13;5082228;27;45311;-73
2021/08/25 00:26:34;;;;;;;;;6.00;6.00;;;;;19.90;46.63;101834.75;5061854;28;45351;-73
2021/08/25 00:29:00;;;;;;;;;8.00;6.75;;;;;19.67;46.43;101796.19;5079772;27;45553;-73
2021/08/25 00:31:25;;;;;;;;;4.00;4.00;;;;;19.58;46.63;101780.44;5079691;28;46259;-73
2021/08/25 00:33:50;;;;;;;;;6.25;5.25;;;;;19.70;46.83;101801.44;5079697;28;45393;-73
2021/08/25 00:36:16;;;;;;;;;7.50;6.50;;;;;19.75;46.74;101812.06;5082075;27;45283;-73
2021/08/25 00:38:41;;;;;;;;;6.00;5.00;;;;;19.70;46.53;101797.88;5083735;28;45295;-73
2021/08/25 00:41:07;;;;;;;;;5.25;4.25;;;;;19.65;46.42;101781.00;5081312;27;46302;-73
2021/08/25 00:43:32;;;;;;;;;6.25;6.25;;;;;19.59;47.13;101769.50;5083250;28;45267;-73
2021/08/25 00:45:58;;;;;;;;;7.75;6.75;;;;;19.68;47.06;101783.50;5065038;27;45243;-73
2021/08/25 00:48:23;;;;;;;;;7.00;5.50;;;;;19.61;47.09;101775.75;5065044;28;45441;-73
2021/08/25 00:50:50;;;;;;;;;4.75;3.75;;;;;19.87;46.97;101826.78;5064940;27;48227;-73
2021/08/25 00:53:16;;;;;;;;;8.00;7.00;;;;;19.68;47.06;101783.50;5074991;27;45383;-73
2021/08/25 00:55:43;;;;;;;;;5.75;5.75;;;;;19.84;47.08;101805.28;5085429;27;45448;-73
2021/08/25 00:58:09;;;;;;;;;9.75;7.25;;;;;19.76;47.21;101802.97;5103706;27;45385;-73
2021/08/25 01:00:42;;;;;;;;;5.00;4.25;;;;;19.68;47.25;101788.94;5101698;27;45723;-73
2021/08/25 01:03:31;;;;;;;;;5.50;5.50;;;;;19.65;47.20;101783.69;5103634;27;45379;-73
2021/08/25 01:05:57;;;;;;;;;6.50;5.50;;;;;19.57;47.36;101773.28;5085233;27;45395;-73
2021/08/25 01:08:24;;;;;;;;;7.25;7.25;;;;;19.53;47.10;101761.72;5102164;27;45452;-73
2021/08/25 01:10:50;;;;;;;;;6.00;5.50;;;;;19.76;47.61;101798.44;5103551;27;46234;-73
2021/08/25 01:13:17;;;;;;;;;6.00;6.00;;;;;19.63;47.28;101765.69;5095996;27;45246;-73
2021/08/25 01:15:43;;;;;;;;;7.50;5.75;;;;;19.59;47.22;101766.78;5084818;27;45428;-73
2021/08/25 01:18:13;;;;;;;;;6.25;5.25;;;;;19.51;47.45;101758.25;5079488;28;45835;-73
2021/08/25 01:20:39;;;;;;;;;5.25;5.25;;;;;19.76;47.64;101802.97;5099270;27;45712;-73
2021/08/25 01:23:05;;;;;;;;;4.75;4.75;;;;;19.71;47.57;101802.31;5097803;27;45377;-73
2021/08/25 01:25:32;;;;;;;;;6.75;5.75;;;;;19.68;47.55;101791.63;5059674;28;45264;-73
2021/08/25 01:28:01;;;;;;;;;6.75;6.75;;;;;19.63;47.24;101778.38;5082842;28;45385;-73
2021/08/25 01:30:29;;;;;;;;;7.25;6.75;;;;;19.71;47.43;101791.47;5082277;27;45401;-73
2021/08/25 01:32:58;;;;;;;;;5.00;5.00;;;;;19.36;47.51;101723.84;5082048;28;45521;-73
2021/08/25 01:35:37;;;;;;;;;5.50;5.00;;;;;19.68;47.53;101788.94;5064302;28;45469;-73
2021/08/25 01:38:05;;;;;;;;;5.50;5.50;;;;;19.51;47.54;101763.66;5064340;28;45501;-73
2021/08/25 01:40:32;;;;;;;;;5.00;5.00;;;;;19.37;47.83;101744.56;5082641;27;45317;-73
2021/08/25 01:42:59;;;;;;;;;6.25;4.00;;;;;19.73;47.73;101797.69;5082438;27;45527;-73
2021/08/25 01:45:24;;;;;;;;;7.25;5.75;;;;;19.62;47.83;101779.31;5082205;27;45440;-73
2021/08/25 01:47:49;;;;;;;;;7.00;7.00;;;;;19.78;47.76;101796.53;5083812;27;45495;-73
2021/08/25 01:50:15;;;;;;;;;5.75;5.00;;;;;19.42;47.80;101727.09;5080992;28;47057;-73
2021/08/25 01:52:40;;;;;;;;;4.50;4.50;;;;;19.42;47.71;101732.50;5084362;27;45481;-73
2021/08/25 01:55:06;;;;;;;;;5.00;5.00;;;;;19.39;47.81;101729.97;5102792;27;45571;-73
2021/08/25 01:57:34;;;;;;;;;5.50;4.50;;;;;19.43;47.73;101739.69;5084416;27;45448;-73
2021/08/25 02:00:00;;;;;;;;;4.50;4.25;;;;;19.48;47.67;101727.72;5102327;27;46085;-73
2021/08/25 02:02:25;;;;;;;;;5.25;5.25;;;;;19.50;47.89;101742.94;5102740;27;45254;-73
2021/08/25 02:04:50;;;;;;;;;7.00;7.00;;;;;19.72;47.97;101777.84;5102887;27;45275;-73
2021/08/25 02:07:17;;;;;;;;;7.25;5.75;;;;;19.51;47.52;101744.69;5102577;27;45606;-73
2021/08/25 02:09:42;;;;;;;;;5.75;5.00;;;;;19.51;48.20;101750.13;5102541;27;45411;-73
2021/08/25 02:12:09;;;;;;;;;5.75;5.25;;;;;19.47;48.11;101740.41;5102534;27;45776;-73
2021/08/25 02:14:34;;;;;;;;;7.00;7.00;;;;;19.58;47.82;101756.06;5102213;27;45451;-73
2021/08/25 02:17:00;;;;;;;;;7.50;5.00;;;;;19.55;48.25;101745.41;5084067;27;45592;-73
2021/08/25 02:19:25;;;;;;;;;5.75;5.75;;;;;19.72;48.24;101776.97;5102535;27;46402;-73
2021/08/25 02:21:51;;;;;;;;;5.75;5.75;;;;;19.53;48.34;101750.00;5083922;27;45745;-73
2021/08/25 02:24:16;;;;;;;;;6.50;6.25;;;;;19.34;48.30;101714.94;5078305;27;45390;-73
2021/08/25 02:26:41;;;;;;;;;4.00;4.00;;;;;19.45;48.34;101723.38;5083813;27;45813;-73
2021/08/25 02:29:07;;;;;;;;;6.25;6.00;;;;;19.57;48.57;101747.06;5083525;27;48529;-73
2021/08/25 02:31:32;;;;;;;;;6.00;5.00;;;;;19.31;48.45;101710.56;5080147;28;45223;-73
2021/08/25 02:33:58;;;;;;;;;6.25;6.25;;;;;19.46;48.53;101737.75;5072076;28;45180;-73
2021/08/25 02:36:23;;;;;;;;;6.75;6.75;;;;;19.35;48.61;101716.69;5081987;27;45587;-73
2021/08/25 02:38:49;;;;;;;;;7.50;7.00;;;;;19.69;48.93;101782.56;5083818;27;47290;-73
2021/08/25 02:41:17;;;;;;;;;8.00;5.75;;;;;19.53;48.98;101752.72;5080244;28;45334;-73
2021/08/25 02:43:43;;;;;;;;;7.75;6.00;;;;;19.59;48.51;101763.22;5075671;27;45347;-73
2021/08/25 02:46:09;;;;;;;;;5.50;4.50;;;;;19.43;48.89;101736.97;5101817;27;45484;-74
2021/08/25 02:48:35;;;;;;;;;8.25;7.00;;;;;19.48;48.59;101750.28;5102122;27;45516;-73
2021/08/25 02:51:01;;;;;;;;;5.50;4.50;;;;;19.34;48.82;101718.50;5100561;27;45417;-73
2021/08/25 02:53:26;;;;;;;;;5.00;5.00;;;;;19.45;48.93;101728.78;5083575;27;45316;-73
2021/08/25 02:55:51;;;;;;;;;6.00;6.00;;;;;19.23;49.17;101699.28;5101711;27;45290;-73
2021/08/25 02:58:17;;;;;;;;;5.25;5.25;;;;;19.44;48.83;101741.44;5100908;27;45361;-73
2021/08/25 03:00:42;;;;;;;;;7.75;6.75;;;;;19.21;48.82;101715.59;5079529;28;45300;-73
2021/08/25 03:03:08;;;;;;;;;7.00;7.00;;;;;19.30;48.90;101726.91;5094027;27;45388;-73
2021/08/25 03:05:33;;;;;;;;;6.00;6.00;;;;;19.30;49.10;101740.44;5083283;27;46121;-73
2021/08/25 03:07:59;;;;;;;;;5.75;5.00;;;;;19.16;49.13;101717.69;5101622;27;45355;-73
2021/08/25 03:10:24;;;;;;;;;7.00;5.00;;;;;19.06;49.55;101703.75;5101487;27;45197;-73
2021/08/25 03:12:50;;;;;;;;;7.00;7.00;;;;;19.06;49.31;101697.44;5101856;27;45902;-73
2021/08/25 03:15:15;;;;;;;;;6.75;6.00;;;;;19.27;49.04;101733.34;5101045;27;45494;-73
2021/08/25 03:17:41;;;;;;;;;6.50;6.50;;;;;19.40;49.30;101752.53;5083014;27;48243;-73
2021/08/25 03:20:09;;;;;;;;;6.75;6.50;;;;;19.36;49.32;101753.63;5083162;27;45275;-73
2021/08/25 03:22:36;;;;;;;;;5.00;5.00;;;;;19.02;49.59;101707.56;5079736;28;45331;-73
2021/08/25 03:25:03;;;;;;;;;6.75;5.25;;;;;19.05;49.85;101707.41;5099040;27;45322;-73
2021/08/25 03:27:28;;;;;;;;;11.00;7.00;;;;;19.00;49.46;101703.22;5101320;27;45334;-73
2021/08/25 03:29:54;;;;;;;;;6.75;6.25;;;;;19.06;49.49;101710.97;5100894;27;45440;-73
2021/08/25 03:32:19;;;;;;;;;8.00;6.00;;;;;19.02;49.91;101706.69;5101189;27;45136;-73
2021/08/25 03:34:45;;;;;;;;;6.50;6.50;;;;;18.96;49.88;101707.00;5079259;28;45248;-73
2021/08/25 03:37:10;;;;;;;;;6.50;6.00;;;;;19.18;49.85;101740.13;5084304;27;45315;-73
2021/08/25 03:39:35;;;;;;;;;10.00;6.50;;;;;18.94;49.83;101696.28;5101097;27;45232;-73
2021/08/25 03:42:01;;;;;;;;;5.00;3.75;;;;;19.12;49.83;101734.16;5101185;27;45755;-73
2021/08/25 03:44:26;;;;;;;;;7.00;5.75;;;;;18.97;49.92;101714.19;5082385;27;45604;-73
2021/08/25 03:46:52;;;;;;;;;6.75;6.75;;;;;18.92;50.19;101708.16;5101116;27;46179;-73
2021/08/25 03:49:17;;;;;;;;;7.00;6.00;;;;;19.11;50.12;101743.22;5082571;27;45800;-73
2021/08/25 03:51:43;;;;;;;;;6.75;6.75;;;;;18.87;50.15;101709.25;5101343;27;45980;-73
2021/08/25 03:54:12;;;;;;;;;6.00;6.00;;;;;18.82;49.99;101708.56;5082302;27;45768;-73
2021/08/25 03:56:37;;;;;;;;;6.25;6.25;;;;;19.05;50.56;101748.00;5100902;27;45347;-73
2021/08/25 03:59:03;;;;;;;;;6.75;6.75;;;;;19.10;50.23;101750.47;5100369;27;45243;-73
2021/08/25 04:01:29;;;;;;;;;8.25;6.25;;;;;18.95;50.35;101724.22;5100927;27;45339;-73
2021/08/25 04:03:55;;;;;;;;;5.75;5.75;;;;;18.74;50.31;101691.00;5064726;28;45473;-73
2021/08/25 04:06:20;;;;;;;;;8.00;7.25;;;;;18.77;50.55;101701.66;5090801;27;45272;-73
2021/08/25 04:08:46;;;;;;;;;8.75;7.00;;;;;18.83;50.71;101720.31;5082137;27;45735;-73
2021/08/25 04:11:17;;;;;;;;;9.25;8.25;;;;;18.87;50.88;101719.19;5100942;27;45315;-73
2021/08/25 04:13:42;;;;;;;;;7.00;6.50;;;;;18.65;50.63;101689.66;5100306;27;45317;-73
2021/08/25 04:16:08;;;;;;;;;8.25;8.00;;;;;18.98;50.75;101743.00;5082068;27;47245;-73
2021/08/25 04:18:33;;;;;;;;;8.50;7.25;;;;;18.89;50.93;101728.09;5082052;27;46209;-73
2021/08/25 04:20:58;;;;;;;;;7.00;7.00;;;;;18.70;50.69;101695.69;5100717;27;45199;-73
2021/08/25 04:23:24;;;;;;;;;8.25;7.00;;;;;18.69;50.85;101702.94;5077779;28;46048;-73
2021/08/25 04:25:49;;;;;;;;;7.25;7.00;;;;;18.61;50.76;101696.16;5079866;28;46981;-73
2021/08/25 04:28:14;;;;;;;;;9.25;8.00;;;;;18.78;51.06;101719.66;5079448;27;45303;-73
2021/08/25 04:30:40;;;;;;;;;6.50;6.00;;;;;18.62;50.65;101689.81;5078425;28;45440;-73
2021/08/25 04:33:05;;;;;;;;;5.00;5.00;;;;;18.60;51.09;101689.88;5097760;27;45156;-73
2021/08/25 04:35:30;;;;;;;;;6.00;6.00;;;;;18.55;51.09;101686.53;5100211;27;45218;-73
2021/08/25 04:37:56;;;;;;;;;9.00;8.00;;;;;18.72;50.68;101711.84;5100144;27;45210;-73
2021/08/25 04:40:21;;;;;;;;;9.50;5.00;;;;;18.70;51.28;101709.22;5100551;27;45663;-73
2021/08/25 04:42:47;;;;;;;;;9.00;7.50;;;;;18.73;51.05;101718.97;5081831;27;45999;-73
2021/08/25 04:45:14;;;;;;;;;6.25;4.75;;;;;18.75;50.94;101733.34;5099829;27;45421;-73
2021/08/25 04:47:40;;;;;;;;;5.00;5.00;;;;;18.85;50.96;101734.63;5100258;27;45259;-73
2021/08/25 04:50:06;;;;;;;;;8.25;8.25;;;;;18.57;50.99;101699.97;5082043;27;45533;-73
2021/08/25 04:52:31;;;;;;;;;5.00;5.00;;;;;18.86;51.10;101756.19;5081792;27;45413;-73
2021/08/25 04:54:56;;;;;;;;;7.00;7.00;;;;;18.60;51.19;101702.53;5081649;27;48256;-73
2021/08/25 04:57:22;;;;;;;;;6.50;6.00;;;;;18.81;50.73;101747.41;5081802;27;45240;-73
2021/08/25 04:59:47;;;;;;;;;7.00;7.00;;;;;18.51;51.00;101693.06;5081663;27;45874;-73
2021/08/25 05:02:12;;;;;;;;;9.25;7.75;;;;;18.48;51.16;101685.97;5100038;27;45206;-73
2021/08/25 05:04:38;;;;;;;;;8.00;7.50;;;;;18.69;51.40;101731.78;5099923;27;45188;-73
2021/08/25 05:07:03;;;;;;;;;7.25;6.75;;;;;18.57;51.47;101705.38;5081713;27;45215;-73
2021/08/25 05:09:29;;;;;;;;;7.25;6.25;;;;;18.42;51.08;101674.59;5100157;27;45335;-73
2021/08/25 05:11:54;;;;;;;;;6.75;6.75;;;;;18.43;51.60;101685.34;5081617;27;45343;-73
2021/08/25 05:14:21;;;;;;;;;8.00;8.00;;;;;18.60;51.23;101716.06;5099436;27;46241;-73
2021/08/25 05:16:46;;;;;;;;;8.00;6.75;;;;;18.48;51.23;101707.59;5099692;27;45230;-73
2021/08/25 05:19:12;;;;;;;;;6.25;5.25;;;;;18.54;51.68;101716.34;5098698;27;45443;-73
2021/08/25 05:21:37;;;;;;;;;5.50;5.50;;;;;18.47;51.61;101703.13;5082717;27;45452;-73
2021/08/25 05:24:03;;;;;;;;;6.00;6.00;;;;;18.41;51.51;101687.25;5074289;28;48534;-73
2021/08/25 05:26:29;;;;;;;;;8.25;6.75;;;;;18.53;51.94;101712.78;5082859;27;45325;-73
2021/08/25 05:28:56;;;;;;;;;9.50;9.50;;;;;18.61;51.69;101726.78;5064560;28;45351;-73
2021/08/25 05:31:23;;;;;;;;;7.00;7.00;;;;;18.48;51.73;101707.59;5082409;27;45294;-73
2021/08/25 05:33:49;;;;;;;;;7.50;7.25;;;;;18.65;51.88;101741.03;5075155;27;48168;-73
2021/08/25 05:36:14;;;;;;;;;6.25;6.25;;;;;18.48;51.91;101712.16;5084460;27;45727;-74
2021/08/25 05:38:40;;;;;;;;;9.00;8.25;;;;;18.56;51.81;101726.16;5103159;27;45224;-73
2021/08/25 05:41:05;;;;;;;;;9.00;7.25;;;;;18.46;51.88;101708.63;5102995;27;45263;-73
2021/08/25 05:43:30;;;;;;;;;6.00;6.00;;;;;18.38;51.92;101698.22;5102947;27;46348;-73
2021/08/25 05:45:56;;;;;;;;;7.75;7.75;;;;;18.36;51.82;101691.13;5102796;27;45219;-73
2021/08/25 05:48:21;;;;;;;;;6.50;6.50;;;;;18.70;52.05;101747.09;5103199;27;45463;-73
2021/08/25 05:50:47;;;;;;;;;8.50;6.50;;;;;18.49;52.03;101719.28;5101799;27;45602;-73
2021/08/25 05:53:12;;;;;;;;;10.00;10.00;;;;;18.30;51.86;101686.91;5084297;27;45937;-73
2021/08/25 05:55:41;;;;;;;;;8.00;7.25;;;;;18.66;51.79;101757.19;5101254;27;45323;-73
2021/08/25 05:58:06;;;;;;;;;8.50;6.50;;;;;18.45;52.14;101715.00;5084519;27;45232;-73
2021/08/25 06:00:31;;;;;;;;;12.00;7.25;;;;;18.31;52.07;101696.78;5102283;27;45433;-73
2021/08/25 06:02:57;;;;;;;;;8.25;5.75;;;;;18.48;51.82;101729.22;5084200;27;46729;-73
2021/08/25 06:05:23;;;;;;;;;9.25;8.00;;;;;18.27;52.11;101700.56;5084163;27;45247;-73
2021/08/25 06:07:48;;;;;;;;;10.25;7.75;;;;;18.31;52.07;101707.59;5102846;27;45164;-73
2021/08/25 06:10:13;;;;;;;;;11.50;8.00;;;;;18.47;51.94;101740.13;5066981;27;45701;-73
2021/08/25 06:12:39;;;;;;;;;9.25;9.00;;;;;18.23;51.91;101696.28;5102381;27;46278;-73
2021/08/25 06:15:05;;;;;;;;;9.00;9.00;;;;;18.43;52.17;101747.50;5101961;27;45249;-73
2021/08/25 06:17:30;;;;;;;;;9.00;8.00;;;;;18.47;51.94;101759.91;5102399;27;45298;-73
2021/08/25 06:19:59;;;;;;;;;7.00;7.00;;;;;18.12;52.12;101697.66;5102291;27;45238;-74
2021/08/25 06:22:24;;;;;;;;;8.50;8.00;;;;;18.36;52.09;101727.16;5083653;27;47517;-73
2021/08/25 06:24:50;;;;;;;;;10.00;10.00;;;;;18.57;52.20;101775.69;5083555;27;45375;-73
2021/08/25 06:27:15;;;;;;;;;12.00;8.50;;;;;18.37;52.10;101737.00;5083996;27;45287;-73
2021/08/25 06:29:43;;;;;;;;;10.50;7.50;;;;;18.50;52.67;101750.78;5101732;27;45491;-73
2021/08/25 06:32:09;;;;;;;;;7.75;7.75;;;;;18.41;52.53;101735.00;5102066;27;45225;-73
2021/08/25 06:34:35;;;;;;;;;10.00;10.00;;;;;18.19;52.21;101697.34;5083604;27;45389;-73
2021/08/25 06:37:03;;;;;;;;;13.00;9.00;;;;;18.40;51.75;101727.88;5083767;27;45251;-73
2021/08/25 06:39:28;;;;;;;;;11.25;10.25;;;;;18.32;52.43;101718.28;5101859;27;45562;-73
2021/08/25 06:41:56;;;;;;;;;8.50;7.25;;;;;18.47;52.22;101745.53;5102107;27;45656;-73
2021/08/25 06:44:22;;;;;;;;;8.50;7.75;;;;;18.35;52.43;101717.28;5101557;27;45294;-73
2021/08/25 06:46:47;;;;;;;;;10.50;10.00;;;;;18.42;52.11;101728.66;5083944;27;45161;-73
2021/08/25 06:49:13;;;;;;;;;9.25;7.25;;;;;18.26;52.41;101702.41;5101802;27;45629;-73
2021/08/25 06:51:42;;;;;;;;;10.75;9.50;;;;;18.30;52.92;101713.94;5102010;27;46268;-73
2021/08/25 06:54:07;;;;;;;;;11.00;8.25;;;;;18.27;52.58;101698.72;5101347;27;45468;-73
2021/08/25 06:56:32;;;;;;;;;8.75;8.75;;;;;18.37;52.18;101714.50;5102019;27;45733;-73
2021/08/25 06:58:58;;;;;;;;;7.50;7.00;;;;;18.62;52.23;101763.69;5083003;27;45502;-73
2021/08/25 07:01:24;;;;;;;;;7.50;7.00;;;;;18.58;51.84;101756.69;5101860;27;46596;-73
2021/08/25 07:03:50;;;;;;;;;10.25;8.50;;;;;18.55;52.66;101746.03;5082972;27;45659;-73
2021/08/25 07:06:15;;;;;;;;;9.25;9.25;;;;;18.40;52.53;101719.75;5102016;27;45258;-72
2021/08/25 07:08:41;;;;;;;;;9.25;9.25;;;;;18.50;52.28;101742.69;5101453;27;45453;-73
2021/08/25 07:11:06;;;;;;;;;13.25;10.75;;;;;18.51;52.58;101736.31;5099935;27;45544;-73
2021/08/25 07:13:31;;;;;;;;;12.50;10.75;;;;;18.52;52.04;101729.94;5101278;27;45274;-73
2021/08/25 07:16:00;;;;;;;;;9.75;8.25;;;;;18.50;52.29;101719.22;5101491;27;45420;-73
2021/08/25 07:18:25;;;;;;;;;6.00;6.00;;;;;18.41;52.28;101711.56;5079668;28;45654;-73
2021/08/25 07:20:51;;;;;;;;;11.50;9.00;;;;;18.55;52.20;101728.94;5090651;27;45299;-73
2021/08/25 07:23:16;;;;;;;;;9.00;9.00;;;;;18.71;51.82;101748.84;5097855;27;45234;-73
2021/08/25 07:25:42;;;;;;;;;10.25;9.50;;;;;18.57;52.33;101721.59;5081016;28;45174;-73
2021/08/25 07:28:08;;;;;;;;;10.75;10.50;;;;;18.61;52.01;101724.09;5080616;28;45409;-73
2021/08/25 07:30:34;;;;;;;;;11.00;11.00;;;;;18.65;52.16;101735.63;5080644;28;45528;-73
2021/08/25 07:32:59;;;;;;;;;9.00;7.00;;;;;18.83;52.05;101758.19;5080785;27;45389;-73
2021/08/25 07:35:29;;;;;;;;;7.50;7.50;;;;;18.45;51.90;101696.94;5080794;27;45809;-73
2021/08/25 07:37:54;;;;;;;;;8.00;7.00;;;;;18.58;52.11;101712.56;5080739;27;45303;-73
2021/08/25 07:40:20;;;;;;;;;12.25;8.25;;;;;18.90;52.20;101751.50;5082634;27;47053;-73
2021/08/25 07:42:45;;;;;;;;;7.25;7.25;;;;;18.72;51.81;101719.97;5082757;27;46035;-73
2021/08/25 07:45:11;;;;;;;;;6.75;6.75;;;;;18.67;52.21;101701.25;5100310;27;45366;-73
2021/08/25 07:47:38;;;;;;;;;8.75;8.25;;;;;18.76;52.55;101718.84;5099763;27;45386;-73
2021/08/25 07:50:04;;;;;;;;;9.25;8.00;;;;;18.72;51.92;101698.31;5082801;27;48081;-73
2021/08/25 07:52:30;;;;;;;;;7.00;7.00;;;;;18.83;51.60;101718.47;5100924;27;45415;-73
2021/08/25 07:54:55;;;;;;;;;9.00;9.00;;;;;18.78;51.91;101709.69;5082690;27;45391;-73
2021/08/25 07:57:38;;;;;;;;;;;;;;;;;;;;;
2021/08/25 08:00:07;;;;;;;;;8.25;8.25;;;;;18.88;51.72;101702.88;5092128;27;75414;-73
2021/08/25 08:02:43;;;;;;;;;10.25;9.50;;;;;19.06;51.49;101728.13;5082417;27;45259;-73
2021/08/25 08:05:09;;;;;;;;;7.75;7.00;;;;;18.91;51.59;101690.16;5100871;27;45228;-74
2021/08/25 08:07:34;;;;;;;;;8.00;8.00;;;;;19.07;51.54;101719.03;5100813;27;45556;-76
2021/08/25 08:10:04;;;;;;;;;9.25;9.25;;;;;19.12;51.71;101712.50;5082210;27;47239;-75
2021/08/25 08:12:30;;;;;;;;;9.25;8.25;;;;;19.37;51.70;101748.13;5082204;27;45382;-72
2021/08/25 08:14:55;;;;;;;;;9.00;7.50;;;;;19.41;51.69;101748.84;5078603;28;45320;-69
2021/08/25 08:17:22;;;;;;;;;8.50;7.50;;;;;19.25;51.54;101711.75;5094129;27;45440;-74
2021/08/25 08:19:48;;;;;;;;;9.25;7.50;;;;;19.45;51.61;101734.19;5100580;27;45548;-74
2021/08/25 08:22:14;;;;;;;;;7.75;7.75;;;;;19.38;51.68;101722.81;5082072;27;45367;-75
2021/08/25 08:24:39;;;;;;;;;11.50;11.25;;;;;19.40;51.44;101714.63;5080394;27;45196;-69
2021/08/25 08:27:05;;;;;;;;;9.00;9.00;;;;;19.65;51.97;101745.78;5100765;27;45361;-69
2021/08/25 08:29:31;;;;;;;;;9.00;6.75;;;;;19.71;51.65;101735.50;5098993;27;46285;-69
2021/08/25 08:31:57;;;;;;;;;8.25;7.50;;;;;19.65;51.56;101714.16;5100368;27;45363;-69
2021/08/25 08:34:22;;;;;;;;;7.75;7.75;;;;;19.73;51.04;101720.03;5100214;27;45347;-69
2021/08/25 08:37:03;;;;;;;;;;;;;;;;;;;;;
2021/08/25 08:39:30;;;;;;;;;7.75;7.00;;;;;19.66;51.09;101675.25;5099121;27;75257;-73
2021/08/25 08:41:55;;;;;;;;;7.00;7.00;;;;;19.98;51.76;101722.25;5081922;27;45306;-71
2021/08/25 08:44:24;;;;;;;;;8.00;8.00;;;;;20.08;51.07;101725.31;5081591;27;45761;-72
2021/08/25 08:46:50;;;;;;;;;5.50;5.50;;;;;19.91;50.95;101690.16;5082028;27;46011;-78
2021/08/25 08:49:16;;;;;;;;;7.25;6.25;;;;;20.06;50.44;101716.38;5100152;27;46208;-74
2021/08/25 08:51:57;;;;;;;;;10.50;9.25;;;;;20.14;50.97;101719.53;5082044;27;45993;-71
2021/08/25 08:54:43;;;;;;;;;7.00;7.00;;;;;20.23;50.54;101723.56;5081658;27;45422;-74
2021/08/25 08:57:08;;;;;;;;;9.00;8.25;;;;;20.08;50.93;101692.81;5072214;27;45413;-69
2021/08/25 08:59:34;;;;;;;;;9.25;7.75;;;;;20.22;50.65;101704.69;5084979;27;46591;-71
2021/08/25 09:01:59;;;;;;;;;8.00;7.50;;;;;20.36;50.41;101716.47;5103694;27;45276;-67
2021/08/25 09:04:34;;;;;;;;;8.00;7.25;;;;;20.33;50.62;101707.63;5103754;27;45518;-74
2021/08/25 09:07:01;;;;;;;;;8.50;8.00;;;;;20.50;50.69;101721.09;5085086;27;45437;-70
2021/08/25 09:09:27;;;;;;;;;12.50;12.25;;;;;20.56;50.50;101717.13;5085268;27;47608;-68
2021/08/25 09:11:56;;;;;;;;;11.25;9.25;;;;;20.62;50.13;101715.91;5103577;27;45319;-66
2021/08/25 09:14:26;;;;;;;;;12.00;10.00;;;;;20.61;49.78;101709.59;5103238;27;45206;-67
2021/08/25 09:16:52;;;;;;;;;7.25;7.25;;;;;20.64;49.98;101692.31;5084623;27;45697;-72
2021/08/25 09:19:18;;;;;;;;;8.50;8.50;;;;;20.83;49.72;101711.06;5084814;27;48218;-72
2021/08/25 09:21:52;;;;;;;;;10.00;10.00;;;;;20.84;49.49;101702.81;5084990;27;45327;-71
2021/08/25 09:24:41;;;;;;;;;10.50;9.25;;;;;20.86;49.08;101690.03;5091349;27;45396;-72
2021/08/25 09:27:13;;;;;;;;;14.00;10.50;;;;;20.90;50.13;101696.16;5084859;27;45240;-74
2021/08/25 09:29:41;;;;;;;;;21.75;15.00;;;;;20.88;49.44;101681.78;5084280;27;46360;-71
2021/08/25 09:32:21;;;;;;;;;7.00;7.00;;;;;21.11;57.93;101710.25;5084589;27;45323;-69
2021/08/25 09:34:53;;;;;;;;;41.00;26.25;;;;;20.88;51.49;101717.06;5102883;27;45318;-62
2021/08/25 09:37:19;;;;;;;;;27.00;15.50;;;;;20.90;52.25;101707.88;5101907;27;45579;-56
2021/08/25 09:39:51;;;;;;;;;12.25;10.00;;;;;20.96;50.08;101698.50;5102767;27;46202;-70
2021/08/25 09:42:19;;;;;;;;;7.25;7.25;;;;;21.09;49.45;101721.19;5084622;27;45456;-71
2021/08/25 09:44:58;;;;;;;;;19.25;13.25;;;;;21.10;48.94;101705.81;5084614;27;45361;-67
2021/08/25 09:47:48;;;;;;;;;6.50;6.25;;;;;21.19;49.33;101709.78;5103003;27;45230;-74
2021/08/25 09:50:16;;;;;;;;;7.25;6.00;;;;;21.20;48.75;101693.41;5103015;27;45621;-73
2021/08/25 09:52:43;;;;;;;;;7.00;7.00;;;;;21.29;49.40;101702.81;5102773;27;45413;-75
2021/08/25 09:55:09;;;;;;;;;10.25;9.00;;;;;21.35;48.43;101702.44;5102825;27;45236;-74
2021/08/25 09:57:39;;;;;;;;;4.75;4.75;;;;;21.33;47.97;101679.06;5102684;27;45243;-72
2021/08/25 10:00:07;;;;;;;;;7.50;6.25;;;;;21.42;47.89;101694.78;5084041;27;47323;-72
2021/08/25 10:02:33;;;;;;;;;8.25;8.25;;;;;21.38;48.02;101679.63;5102613;27;45330;-71
2021/08/25 10:04:58;;;;;;;;;9.50;9.00;;;;;21.40;48.13;101661.38;5084425;27;45393;-71
2021/08/25 10:07:24;;;;;;;;;8.00;7.25;;;;;21.46;48.09;101680.88;5102456;27;45365;-71
2021/08/25 10:09:49;;;;;;;;;7.00;7.00;;;;;21.49;47.70;101679.88;5102703;27;45280;-69
2021/08/25 10:12:15;;;;;;;;;6.50;6.50;;;;;21.56;47.11;101683.06;5102685;27;45218;-68
2021/08/25 10:14:40;;;;;;;;;6.50;6.00;;;;;21.58;47.06;101681.97;5102378;27;45369;-69
2021/08/25 10:17:06;;;;;;;;;9.00;8.00;;;;;21.60;47.70;101679.16;5102306;27;45495;-68
2021/08/25 10:19:40;;;;;;;;;7.00;7.00;;;;;21.66;47.45;101676.06;5102499;27;46131;-68
2021/08/25 10:22:14;;;;;;;;;6.75;6.75;;;;;21.69;47.21;101672.28;5102359;27;45168;-68
2021/08/25 10:24:58;;;;;;;;;8.00;7.00;;;;;21.71;46.96;101662.19;5097821;27;45170;-69
2021/08/25 10:27:25;;;;;;;;;10.25;8.25;;;;;21.68;46.92;101651.50;5102501;27;45449;-68
2021/08/25 10:30:02;;;;;;;;;9.75;8.75;;;;;21.75;46.12;101667.31;5083365;27;46115;-68
2021/08/25 10:32:29;;;;;;;;;6.00;6.00;;;;;21.73;46.17;101652.09;5102167;27;45388;-69
2021/08/25 10:35:13;;;;;;;;;6.75;6.50;;;;;21.83;46.88;101662.28;5102150;27;45425;-68
2021/08/25 10:37:40;;;;;;;;;6.75;6.25;;;;;21.88;46.50;101659.22;5102103;27;45588;-69
2021/08/25 10:40:07;;;;;;;;;10.00;7.25;;;;;21.95;46.63;101662.41;5102031;27;46126;-69
2021/08/25 10:42:51;;;;;;;;;8.00;7.75;;;;;22.01;46.33;101656.56;5101863;27;45297;-69
2021/08/25 10:45:38;;;;;;;;;11.25;7.75;;;;;22.03;46.30;101660.06;5083322;27;45385;-69
2021/08/25 10:48:08;;;;;;;;;9.50;8.25;;;;;22.07;45.68;101650.75;5102047;27;45241;-68
2021/08/25 10:50:49;;;;;;;;;7.25;6.00;;;;;22.11;45.62;101648.69;5102083;27;46034;-69
2021/08/25 10:53:31;;;;;;;;;8.75;7.75;;;;;22.13;46.17;101666.63;5083605;27;45267;-68
2021/08/25 10:56:07;;;;;;;;;6.50;5.25;;;;;22.11;45.47;101655.00;5101884;27;45362;-69
2021/08/25 10:58:47;;;;;;;;;7.00;6.75;;;;;22.16;45.12;101650.13;5101823;27;45421;-69
2021/08/25 11:01:40;;;;;;;;;11.00;8.50;;;;;22.17;44.69;101643.72;5101741;27;46038;-69
2021/08/25 11:04:16;;;;;;;;;9.50;9.00;;;;;22.20;45.14;101645.34;5083926;27;45442;-65
2021/08/25 11:06:46;;;;;;;;;8.50;8.25;;;;;22.21;44.47;101644.38;5101793;27;45471;-63
2021/08/25 11:09:11;;;;;;;;;6.25;6.25;;;;;22.23;44.73;101631.53;5101762;27;45504;-64
2021/08/25 11:11:37;;;;;;;;;6.00;6.00;;;;;22.26;45.01;101634.06;5083181;27;46836;-64
2021/08/25 11:14:03;;;;;;;;;9.50;7.50;;;;;22.29;44.32;101638.47;5101237;27;45227;-64
2021/08/25 11:16:28;;;;;;;;;7.00;7.00;;;;;22.28;44.25;101632.13;5101504;27;45511;-64
2021/08/25 11:18:53;;;;;;;;;7.50;7.00;;;;;22.16;44.92;101605.75;5100863;27;45532;-65
2021/08/25 11:21:18;;;;;;;;;8.00;8.00;;;;;22.35;44.52;101625.31;5101503;27;46515;-65
2021/08/25 11:23:52;;;;;;;;;6.50;6.50;;;;;22.36;44.52;101612.56;5093952;27;45415;-65
2021/08/25 11:26:18;;;;;;;;;11.50;8.00;;;;;22.43;44.26;101619.34;5080932;27;45455;-65
2021/08/25 11:28:43;;;;;;;;;6.00;6.00;;;;;22.48;44.23;101614.44;5080921;27;45230;-65